Aviation Digital Data Service (ADDS)

Output produced by METARs form (1810 UTC 14 August 2018)
found at http://www.aviationweather.gov/adds/metars/
 
GMAD 141800Z 23010KT 210V270 CAVOK 31/14 Q1012 NOSIG
TAF GMAD 141700Z 1418/1524 20008KT 9999 SCT026 
     BECMG 1510/1512 26012KT CAVOK
       
GMMC 141800Z 02012KT 9999 FEW016 23/19 Q1017
GMFO 141800Z 33012KT CAVOK 30/08 Q1017 NOSIG
TAF GMFO 141700Z 1418/1524 34016KT CAVOK 
     PROB30 
     TEMPO 1502/1507 26006KT 2000 BR BKN006 
     BECMG 1514/1518 36017KT 9999 SCT033
       
GMMW 141800Z 06007KT 030V100 CAVOK 29/14 Q1015 NOSIG
TAF GMMW 141700Z 1418/1524 03008KT CAVOK 
     BECMG 1510/1512 FEW020
       
GMFM 141800Z 32007KT CAVOK 31/10 Q1018 NOSIG
TAF GMFM 141700Z 1418/1524 33007KT CAVOK 
     PROB30 
     TEMPO 1504/1509 VRB02KT 4000 BR BKN010 
     BECMG 1510/1514 VRB02KT CAVOK 
     BECMG 1516/1520 FEW023
       
GMTA 141800Z 36004KT CAVOK 29/16 Q1014 NOSIG
TAF GMTA 141700Z 1418/1524 35008KT CAVOK 
     BECMG 1510/1512 SCT016
       
GMMI 141800Z 02012KT 340V040 7000 NSC 29/18 Q1015 NOSIG
TAF GMMI 141700Z 1418/1524 36012KT 8000 NSC
       
GMAD 141800Z 23010KT 210V270 CAVOK 31/14 Q1012 NOSIG
TAF GMAD 141700Z 1418/1524 20008KT 9999 SCT026 
     BECMG 1510/1512 26012KT CAVOK
       
GMAG 141800Z 36018KT CAVOK 36/13 Q1011 NOSIG
GMAT 141800Z 02014KT CAVOK 32/15 Q1012 NOSIG
GMFF 141800Z 32009KT CAVOK 33/09 Q1018 NOSIG
TAF GMFF 141700Z 1418/1524 20004KT CAVOK 
     BECMG 1512/1516 30012KT FEW030 SCT233
       
GMFK 141800Z 10004KT 050V170 9999 TS SCT030 FEW033CB 35/07 Q1019 NOSIG
GMFM 141800Z 32007KT CAVOK 31/10 Q1018 NOSIG
TAF GMFM 141700Z 1418/1524 33007KT CAVOK 
     PROB30 
     TEMPO 1504/1509 VRB02KT 4000 BR BKN010 
     BECMG 1510/1514 VRB02KT CAVOK 
     BECMG 1516/1520 FEW023
       
GMFO 141800Z 33012KT CAVOK 30/08 Q1017 NOSIG
TAF GMFO 141700Z 1418/1524 34016KT CAVOK 
     PROB30 
     TEMPO 1502/1507 26006KT 2000 BR BKN006 
     BECMG 1514/1518 36017KT 9999 SCT033
       
GMMB 141800Z 32010KT 290V360 8000 SCT013 26/19 Q1018 NOSIG
GMMC 141800Z 02012KT 9999 FEW016 23/19 Q1017
GMMD 141800Z 22008KT CAVOK 37/07 Q1016 NOSIG
GMME 141800Z 35008KT 9999 FEW016 24/18 Q1016 NOSIG
TAF GMME 141700Z 1418/1524 34010KT 8000 SCT015 
     TEMPO 1418/1506 VRB02KT
       
GMMH 141800Z 27009KT 5000 FEW010 23/21 Q1014 NOSIG
TAF GMMH 141700Z 1418/1524 23012KT 6000 BKN010 
     PROB40 1421/1509 1200 BR OVC006 
     PROB40 
     TEMPO 1500/1508 0500 FG OVC006
       
GMMI 141800Z 02012KT 340V040 7000 NSC 29/18 Q1015 NOSIG
TAF GMMI 141700Z 1418/1524 36012KT 8000 NSC
       
GMML 141800Z 03023KT 5000 NSC 33/18 Q1013 NOSIG
TAF GMML 141700Z 1418/1524 04018KT CAVOK 
     BECMG 1518/1521 BKN016
       
GMMN 141800Z 35012KT CAVOK 25/20 Q1018 NOSIG
TAF GMMN 141700Z 1418/1524 34014KT CAVOK 
     BECMG 1422/1501 07005KT BKN010 
     PROB30 1502/1506 3000 BR BKN005 
     BECMG 1510/1514 34015KT CAVOK
       
GMMW 141800Z 06007KT 030V100 CAVOK 29/14 Q1015 NOSIG
TAF GMMW 141700Z 1418/1524 03008KT CAVOK 
     BECMG 1510/1512 FEW020
       
GMMX 141800Z 33010KT 300V360 9999 SCT033 FEW040CB SCT100 37/10 Q1016 NOSIG
TAF GMMX 141700Z 1418/1524 34015KT 8000 SCT033 FEW040CB 
     TEMPO 1419/1421 TS 
     BECMG 1422/1501 24005KT 8000 NSC
       
GMMZ 141800Z 15003KT 9999 BKN040 FEW050TCU 34/10 Q1019 NOSIG
TAF GMMZ 141700Z 1418/1524 24012KT 9999 BKN040 FEW050TCU 
     PROB30 
     TEMPO 1419/1421 TSRA FEW050CB 
     BECMG 1501/1504 VRB02KT SCT040 
     TEMPO 1518/1523 30013KT
       
GMTA 141800Z 36004KT CAVOK 29/16 Q1014 NOSIG
TAF GMTA 141700Z 1418/1524 35008KT CAVOK 
     BECMG 1510/1512 SCT016
       
GMTN 141800Z 28012KT CAVOK 33/09 Q1014 NOSIG
GMTT 141800Z 29007KT 250V320 9999 FEW016 24/19 Q1016 NOSIG
TAF GMTT 141700Z 1418/1524 28010KT 9999 FEW016 
     BECMG 1422/1424 22005KT 
     PROB40 
     TEMPO 1423/1508 3000 BR BKN008 
     BECMG 1510/1514 28015KT 
     BECMG 1517/1520 22012KT
       
GMTT 141800Z 29007KT 250V320 9999 FEW016 24/19 Q1016 NOSIG
TAF GMTT 141700Z 1418/1524 28010KT 9999 FEW016 
     BECMG 1422/1424 22005KT 
     PROB40 
     TEMPO 1423/1508 3000 BR BKN008 
     BECMG 1510/1514 28015KT 
     BECMG 1517/1520 22012KT
       
GMMX 141800Z 33010KT 300V360 9999 SCT033 FEW040CB SCT100 37/10 Q1016 NOSIG
TAF GMMX 141700Z 1418/1524 34015KT 8000 SCT033 FEW040CB 
     TEMPO 1419/1421 TS 
     BECMG 1422/1501 24005KT 8000 NSC
       
GMMN 141800Z 35012KT CAVOK 25/20 Q1018 NOSIG
TAF GMMN 141700Z 1418/1524 34014KT CAVOK 
     BECMG 1422/1501 07005KT BKN010 
     PROB30 1502/1506 3000 BR BKN005 
     BECMG 1510/1514 34015KT CAVOK
       
GMFK 141800Z 10004KT 050V170 9999 TS SCT030 FEW033CB 35/07 Q1019 NOSIG
GMMZ 141800Z 15003KT 9999 BKN040 FEW050TCU 34/10 Q1019 NOSIG
TAF GMMZ 141700Z 1418/1524 24012KT 9999 BKN040 FEW050TCU 
     PROB30 
     TEMPO 1419/1421 TSRA FEW050CB 
     BECMG 1501/1504 VRB02KT SCT040 
     TEMPO 1518/1523 30013KT
       
GMAT 141800Z 02014KT CAVOK 32/15 Q1012 NOSIG
GMFF 141800Z 32009KT CAVOK 33/09 Q1018 NOSIG
TAF GMFF 141700Z 1418/1524 20004KT CAVOK 
     BECMG 1512/1516 30012KT FEW030 SCT233
       
GMME 141800Z 35008KT 9999 FEW016 24/18 Q1016 NOSIG
TAF GMME 141700Z 1418/1524 34010KT 8000 SCT015 
     TEMPO 1418/1506 VRB02KT
       
GMTN 141800Z 28012KT CAVOK 33/09 Q1014 NOSIG